Reading, PA

5:34 AM EDT on September 02, 2015 (GMT -0400)
Reading Regional-Spaatz | | Change Station
CLOSE
Current Station
Airport
Location: Reading,
Elevation: 344 ft
Nearby Weather Stations

Elev 344 ft 40.37 °N, 75.96 °W | Updated 40 minutes ago

Clear
Clear
67 °F
Feels Like 67 °F
N
0
Wind Variable Wind from North

Today
High -- | Low -- °F
--% Chance of Precip.
Yesterday
High -- | Low -- °F
Precip. -- in
6:31 AM 7:34 PM
Waning Gibbous, 82% visible
Pressure 30.04 in
Visibility 6.0 miles
Clouds Clear
Dew Point 64 °F
Humidity 90%
Rainfall 0.00 in
Snow Depth Not available.
UV 0 out of 12
Pollen 9.70 out of 12
Air Quality Not available.
Flu Activity Not available.
METAR KRDG 020854Z AUTO 00000KT 6SM BR CLR 19/18 A3003 RMK AO2 SLP170 T01940178 58006
Pressure 30.04 in
Visibility 6.0 miles
Clouds Clear
Dew Point 64 °F
Humidity 90%
Rainfall 0.00 in
Snow Depth Not available.
UV 0 out of 12
Pollen 9.70 out of 12
Air Quality Not available.
Flu Activity Not available.
METAR KRDG 020854Z AUTO 00000KT 6SM BR CLR 19/18 A3003 RMK AO2 SLP170 T01940178 58006
Nowcast | as of 5:09 am EDT on September 2, 2015

Patchy fog will persist through dawn across portions of the region, reducing visibilities to one half mile at times. Motorists are urged to exercise caution for rapidly changing visibilities. Reduce speed, allow extra time to reach your destination, and use low beam headlights if you encounter fog. The fog should begin to dissipate shortly after sunrise.

×

10-Day Weather Forecast

×

Almanac

Astronomy

Sep. 02, 2015 Rise Set
Actual Time
Civil Twilight
Nautical Twilight
Astronomical Twilight
Moon
Length of Visible Light
Length of Day
Tomorrow will be .
, % of the Moon is Illuminated

Today's Extremes

State Highs State Lows

Community

WunderPhotos

Upload Photos

1,851,730 photos uploaded!

WunderBlogs® & News

Nearby

Air Quality

  Air Quality AQ Index Pollutant
Not available.

Snow Depth

Station Depth Elevation

Earthquake Activity

City Distance Mag. Time & Date
Minimum magnitude displayed is 2.5.

Coastal Water Temperatures

Place Temperature

Stations

Nearby Weather Stations

Station Location Temp. Windchill Dew Point Humidity Wind Precip. Elev Updated Type